sensor_id;sensor_type;location;lat;lon;timestamp;pressure;altitude;pressure_sealevel;temperature;humidity
76404;BME280;65232;48.358;2.122;2023-06-14T00:00:22;100388.69;;;15.75;69.49
76404;BME280;65232;48.358;2.122;2023-06-14T00:00:48;100394.44;;;15.72;69.88
76404;BME280;65232;48.358;2.122;2023-06-14T00:01:14;100388.84;;;15.74;69.55
76404;BME280;65232;48.358;2.122;2023-06-14T00:01:39;100385.66;;;15.70;69.88
76404;BME280;65232;48.358;2.122;2023-06-14T00:02:05;100387.53;;;15.70;69.51
76404;BME280;65232;48.358;2.122;2023-06-14T00:02:33;100393.59;;;15.72;69.61
76404;BME280;65232;48.358;2.122;2023-06-14T00:02:59;100392.59;;;15.73;69.78
76404;BME280;65232;48.358;2.122;2023-06-14T00:03:24;100397.78;;;15.82;69.44
76404;BME280;65232;48.358;2.122;2023-06-14T00:03:51;100395.09;;;15.82;70.21
76404;BME280;65232;48.358;2.122;2023-06-14T00:04:17;100387.34;;;15.88;70.70
76404;BME280;65232;48.358;2.122;2023-06-14T00:04:43;100390.84;;;15.88;70.95
76404;BME280;65232;48.358;2.122;2023-06-14T00:05:08;100389.19;;;15.79;71.14
76404;BME280;65232;48.358;2.122;2023-06-14T00:05:34;100389.19;;;15.79;71.00
76404;BME280;65232;48.358;2.122;2023-06-14T00:06:03;100388.50;;;15.77;71.18
76404;BME280;65232;48.358;2.122;2023-06-14T00:06:30;100393.56;;;15.80;71.09
76404;BME280;65232;48.358;2.122;2023-06-14T00:06:55;100393.56;;;15.80;70.89
76404;BME280;65232;48.358;2.122;2023-06-14T00:07:37;100389.03;;;15.72;71.56
76404;BME280;65232;48.358;2.122;2023-06-14T00:08:09;100391.06;;;15.70;71.41
76404;BME280;65232;48.358;2.122;2023-06-14T00:08:35;100391.88;;;15.79;71.19
76404;BME280;65232;48.358;2.122;2023-06-14T00:09:00;100386.84;;;15.84;70.69
76404;BME280;65232;48.358;2.122;2023-06-14T00:09:26;100384.97;;;15.76;70.77
76404;BME280;65232;48.358;2.122;2023-06-14T00:09:52;100395.75;;;15.76;70.81
76404;BME280;65232;48.358;2.122;2023-06-14T00:10:17;100385.13;;;15.83;70.67
76404;BME280;65232;48.358;2.122;2023-06-14T00:10:43;100386.81;;;15.76;70.94
76404;BME280;65232;48.358;2.122;2023-06-14T00:11:08;100389.69;;;15.74;71.07
76404;BME280;65232;48.358;2.122;2023-06-14T00:11:34;100391.72;;;15.80;70.46
76404;BME280;65232;48.358;2.122;2023-06-14T00:11:59;100381.44;;;15.68;70.78
76404;BME280;65232;48.358;2.122;2023-06-14T00:12:25;100392.06;;;15.69;71.10
76404;BME280;65232;48.358;2.122;2023-06-14T00:12:50;100392.25;;;15.68;71.38
76404;BME280;65232;48.358;2.122;2023-06-14T00:13:15;100387.34;;;15.63;71.16
76404;BME280;65232;48.358;2.122;2023-06-14T00:13:41;100386.84;;;15.60;70.97
76404;BME280;65232;48.358;2.122;2023-06-14T00:14:08;100391.22;;;15.69;70.74
76404;BME280;65232;48.358;2.122;2023-06-14T00:14:34;100389.53;;;15.76;70.06
76404;BME280;65232;48.358;2.122;2023-06-14T00:14:59;100384.13;;;15.76;70.21
76404;BME280;65232;48.358;2.122;2023-06-14T00:15:26;100385.50;;;15.72;69.75
76404;BME280;65232;48.358;2.122;2023-06-14T00:15:52;100388.03;;;15.65;70.15
76404;BME280;65232;48.358;2.122;2023-06-14T00:16:20;100383.13;;;15.69;69.65
76404;BME280;65232;48.358;2.122;2023-06-14T00:16:46;100385.97;;;15.75;69.45
76404;BME280;65232;48.358;2.122;2023-06-14T00:17:11;100388.53;;;15.69;69.69
76404;BME280;65232;48.358;2.122;2023-06-14T00:17:37;100389.19;;;15.63;69.84
76404;BME280;65232;48.358;2.122;2023-06-14T00:18:04;100382.97;;;15.62;70.08
76404;BME280;65232;48.358;2.122;2023-06-14T00:18:30;100386.19;;;15.58;70.60
76404;BME280;65232;48.358;2.122;2023-06-14T00:18:56;100391.03;;;15.54;71.07
76404;BME280;65232;48.358;2.122;2023-06-14T00:19:25;100390.19;;;15.53;71.09
76404;BME280;65232;48.358;2.122;2023-06-14T00:19:50;100392.22;;;15.60;71.12
76404;BME280;65232;48.358;2.122;2023-06-14T00:20:16;100387.50;;;15.62;70.94
76404;BME280;65232;48.358;2.122;2023-06-14T00:20:41;100388.34;;;15.62;70.88
76404;BME280;65232;48.358;2.122;2023-06-14T00:21:07;100389.19;;;15.55;70.70
76404;BME280;65232;48.358;2.122;2023-06-14T00:21:33;100384.47;;;15.65;70.69
76404;BME280;65232;48.358;2.122;2023-06-14T00:22:00;100389.53;;;15.60;70.60
76404;BME280;65232;48.358;2.122;2023-06-14T00:22:25;100392.91;;;15.62;70.44
76404;BME280;65232;48.358;2.122;2023-06-14T00:22:54;100391.59;;;15.58;70.47
76404;BME280;65232;48.358;2.122;2023-06-14T00:23:20;100394.59;;;15.63;70.22
76404;BME280;65232;48.358;2.122;2023-06-14T00:23:46;100390.56;;;15.67;70.10
76404;BME280;65232;48.358;2.122;2023-06-14T00:24:11;100391.72;;;15.64;70.34
76404;BME280;65232;48.358;2.122;2023-06-14T00:24:37;100393.44;;;15.57;71.37
76404;BME280;65232;48.358;2.122;2023-06-14T00:25:05;100390.38;;;15.52;71.47
76404;BME280;65232;48.358;2.122;2023-06-14T00:25:31;100384.47;;;15.48;71.77
76404;BME280;65232;48.358;2.122;2023-06-14T00:25:56;100397.94;;;15.48;71.94
76404;BME280;65232;48.358;2.122;2023-06-14T00:26:22;100396.41;;;15.46;72.29
76404;BME280;65232;48.358;2.122;2023-06-14T00:26:47;100391.72;;;15.40;72.38
76404;BME280;65232;48.358;2.122;2023-06-14T00:27:13;100397.44;;;15.45;72.10
76404;BME280;65232;48.358;2.122;2023-06-14T00:27:38;100393.88;;;15.44;71.91
76404;BME280;65232;48.358;2.122;2023-06-14T00:28:04;100398.78;;;15.49;72.12
76404;BME280;65232;48.358;2.122;2023-06-14T00:28:29;100395.56;;;15.45;72.07
76404;BME280;65232;48.358;2.122;2023-06-14T00:28:58;100398.16;;;15.55;71.75
76404;BME280;65232;48.358;2.122;2023-06-14T00:29:25;100395.06;;;15.50;71.98
76404;BME280;65232;48.358;2.122;2023-06-14T00:29:51;100404.38;;;15.56;71.73
76404;BME280;65232;48.358;2.122;2023-06-14T00:30:16;100396.09;;;15.49;71.93
76404;BME280;65232;48.358;2.122;2023-06-14T00:30:42;100394.06;;;15.51;71.89
76404;BME280;65232;48.358;2.122;2023-06-14T00:31:09;100392.75;;;15.55;71.02
76404;BME280;65232;48.358;2.122;2023-06-14T00:31:34;100394.56;;;15.46;71.36
76404;BME280;65232;48.358;2.122;2023-06-14T00:32:00;100390.72;;;15.41;71.34
76404;BME280;65232;48.358;2.122;2023-06-14T00:32:25;100392.41;;;15.42;71.46
76404;BME280;65232;48.358;2.122;2023-06-14T00:32:55;100388.50;;;15.36;71.38
76404;BME280;65232;48.358;2.122;2023-06-14T00:33:20;100395.06;;;15.34;71.39
76404;BME280;65232;48.358;2.122;2023-06-14T00:33:46;100390.84;;;15.31;71.09
76404;BME280;65232;48.358;2.122;2023-06-14T00:34:11;100393.38;;;15.33;71.38
76404;BME280;65232;48.358;2.122;2023-06-14T00:34:40;100389.31;;;15.29;71.59
76404;BME280;65232;48.358;2.122;2023-06-14T00:35:07;100398.09;;;15.23;72.08
76404;BME280;65232;48.358;2.122;2023-06-14T00:35:33;100393.72;;;15.22;72.26
76404;BME280;65232;48.358;2.122;2023-06-14T00:35:58;100397.78;;;15.26;72.27
76404;BME280;65232;48.358;2.122;2023-06-14T00:36:24;100399.78;;;15.24;72.42
76404;BME280;65232;48.358;2.122;2023-06-14T00:36:49;100399.63;;;15.25;72.25
76404;BME280;65232;48.358;2.122;2023-06-14T00:37:15;100396.59;;;15.28;71.99
76404;BME280;65232;48.358;2.122;2023-06-14T00:37:42;100397.78;;;15.26;72.20
76404;BME280;65232;48.358;2.122;2023-06-14T00:38:07;100393.72;;;15.30;72.35
76404;BME280;65232;48.358;2.122;2023-06-14T00:38:33;100388.31;;;15.30;72.20
76404;BME280;65232;48.358;2.122;2023-06-14T00:38:58;100394.06;;;15.35;72.25
76404;BME280;65232;48.358;2.122;2023-06-14T00:39:23;100401.47;;;15.33;72.24
76404;BME280;65232;48.358;2.122;2023-06-14T00:39:49;100398.59;;;15.34;72.53
76404;BME280;65232;48.358;2.122;2023-06-14T00:40:15;100404.00;;;15.34;72.27
76404;BME280;65232;48.358;2.122;2023-06-14T00:40:40;100398.63;;;15.26;72.86
76404;BME280;65232;48.358;2.122;2023-06-14T00:41:06;100404.19;;;15.25;72.38
76404;BME280;65232;48.358;2.122;2023-06-14T00:41:31;100405.50;;;15.29;72.12
76404;BME280;65232;48.358;2.122;2023-06-14T00:41:57;100402.66;;;15.22;72.45
76404;BME280;65232;48.358;2.122;2023-06-14T00:42:25;100406.19;;;15.23;72.35
76404;BME280;65232;48.358;2.122;2023-06-14T00:42:51;100399.78;;;15.24;72.61
76404;BME280;65232;48.358;2.122;2023-06-14T00:43:17;100404.69;;;15.28;72.68
76404;BME280;65232;48.358;2.122;2023-06-14T00:43:42;100406.53;;;15.28;72.70
76404;BME280;65232;48.358;2.122;2023-06-14T00:44:08;100402.47;;;15.32;72.71
76404;BME280;65232;48.358;2.122;2023-06-14T00:44:33;100402.81;;;15.21;72.95
76404;BME280;65232;48.358;2.122;2023-06-14T00:45:01;100405.03;;;15.25;72.78
76404;BME280;65232;48.358;2.122;2023-06-14T00:45:26;100405.03;;;15.25;72.49
76404;BME280;65232;48.358;2.122;2023-06-14T00:45:52;100403.84;;;15.28;72.33
76404;BME280;65232;48.358;2.122;2023-06-14T00:46:17;100397.59;;;15.27;72.05
76404;BME280;65232;48.358;2.122;2023-06-14T00:46:45;100407.19;;;15.30;72.16
76404;BME280;65232;48.358;2.122;2023-06-14T00:47:11;100400.13;;;15.21;71.82
76404;BME280;65232;48.358;2.122;2023-06-14T00:47:37;100404.19;;;15.25;72.11
76404;BME280;65232;48.358;2.122;2023-06-14T00:48:04;100405.16;;;15.15;71.77
76404;BME280;65232;48.358;2.122;2023-06-14T00:48:31;100401.44;;;15.16;71.86
76404;BME280;65232;48.358;2.122;2023-06-14T00:49:00;100399.59;;;15.17;71.77
76404;BME280;65232;48.358;2.122;2023-06-14T00:49:26;100406.19;;;15.23;71.36
76404;BME280;65232;48.358;2.122;2023-06-14T00:49:53;100394.72;;;15.29;71.00
76404;BME280;65232;48.358;2.122;2023-06-14T00:50:20;100404.19;;;15.25;71.28
76404;BME280;65232;48.358;2.122;2023-06-14T00:50:46;100398.25;;;15.29;71.12
76404;BME280;65232;48.358;2.122;2023-06-14T00:51:14;100405.34;;;15.22;71.27
76404;BME280;65232;48.358;2.122;2023-06-14T00:51:41;100401.97;;;15.20;71.51
76404;BME280;65232;48.358;2.122;2023-06-14T00:52:07;100403.50;;;15.23;71.74
76404;BME280;65232;48.358;2.122;2023-06-14T00:52:33;100405.03;;;15.25;71.25
76404;BME280;65232;48.358;2.122;2023-06-14T00:53:00;100407.72;;;15.25;71.08
76404;BME280;65232;48.358;2.122;2023-06-14T00:53:26;100402.63;;;15.14;71.50
76404;BME280;65232;48.358;2.122;2023-06-14T00:53:51;100409.41;;;15.26;71.25
76404;BME280;65232;48.358;2.122;2023-06-14T00:54:17;100404.34;;;15.23;70.90
76404;BME280;65232;48.358;2.122;2023-06-14T00:54:43;100412.41;;;15.15;71.19
76404;BME280;65232;48.358;2.122;2023-06-14T00:55:09;100402.81;;;15.21;71.15
76404;BME280;65232;48.358;2.122;2023-06-14T00:55:34;100405.50;;;15.21;70.76
76404;BME280;65232;48.358;2.122;2023-06-14T00:56:00;100409.53;;;15.16;71.21
76404;BME280;65232;48.358;2.122;2023-06-14T00:56:26;100400.78;;;15.14;71.13
76404;BME280;65232;48.358;2.122;2023-06-14T00:56:52;100407.81;;;14.99;71.96
76404;BME280;65232;48.358;2.122;2023-06-14T00:57:19;100402.94;;;15.03;71.89
76404;BME280;65232;48.358;2.122;2023-06-14T00:57:46;100402.13;;;15.10;72.02
76404;BME280;65232;48.358;2.122;2023-06-14T00:58:13;100407.00;;;15.07;72.20
76404;BME280;65232;48.358;2.122;2023-06-14T00:58:41;100403.47;;;15.06;71.80
76404;BME280;65232;48.358;2.122;2023-06-14T00:59:07;100397.72;;;15.01;72.23
76404;BME280;65232;48.358;2.122;2023-06-14T00:59:34;100406.84;;;15.16;71.77
76404;BME280;65232;48.358;2.122;2023-06-14T01:00:04;100401.81;;;15.22;71.45
76404;BME280;65232;48.358;2.122;2023-06-14T01:00:34;100409.91;;;15.22;71.39
76404;BME280;65232;48.358;2.122;2023-06-14T01:00:59;100410.06;;;15.20;71.46
76404;BME280;65232;48.358;2.122;2023-06-14T01:01:25;100400.78;;;15.06;71.94
76404;BME280;65232;48.358;2.122;2023-06-14T01:01:50;100406.34;;;15.13;71.80
76404;BME280;65232;48.358;2.122;2023-06-14T01:02:17;100399.56;;;15.01;72.56
76404;BME280;65232;48.358;2.122;2023-06-14T01:02:43;100404.47;;;15.05;72.56
76404;BME280;65232;48.358;2.122;2023-06-14T01:03:08;100404.13;;;15.00;72.85
76404;BME280;65232;48.358;2.122;2023-06-14T01:03:39;100397.56;;;14.95;72.69
76404;BME280;65232;48.358;2.122;2023-06-14T01:04:05;100406.50;;;15.03;72.70
76404;BME280;65232;48.358;2.122;2023-06-14T01:04:31;100405.63;;;15.03;72.56
76404;BME280;65232;48.358;2.122;2023-06-14T01:04:56;100406.31;;;15.05;72.46
76404;BME280;65232;48.358;2.122;2023-06-14T01:05:23;100404.66;;;15.12;71.82
76404;BME280;65232;48.358;2.122;2023-06-14T01:05:53;100403.81;;;15.11;72.10
76404;BME280;65232;48.358;2.122;2023-06-14T01:06:40;100401.25;;;15.02;72.25
76404;BME280;65232;48.358;2.122;2023-06-14T01:07:18;100408.00;;;15.06;72.07
76404;BME280;65232;48.358;2.122;2023-06-14T01:08:02;100406.00;;;15.08;71.68
76404;BME280;65232;48.358;2.122;2023-06-14T01:08:44;100405.00;;;15.17;71.42
76404;BME280;65232;48.358;2.122;2023-06-14T01:09:18;100407.38;;;15.20;71.11
76404;BME280;65232;48.358;2.122;2023-06-14T01:09:58;100405.31;;;15.14;71.21
76404;BME280;65232;48.358;2.122;2023-06-14T01:11:21;100409.22;;;15.11;71.34
76404;BME280;65232;48.358;2.122;2023-06-14T01:11:50;100407.50;;;15.02;71.37
76404;BME280;65232;48.358;2.122;2023-06-14T01:12:27;100406.69;;;15.10;70.83
76404;BME280;65232;48.358;2.122;2023-06-14T01:13:24;100402.94;;;15.03;71.21
76404;BME280;65232;48.358;2.122;2023-06-14T01:13:53;100403.25;;;14.92;71.71
76404;BME280;65232;48.358;2.122;2023-06-14T01:14:21;100401.25;;;14.94;71.49
76404;BME280;65232;48.358;2.122;2023-06-14T01:14:48;100408.34;;;15.03;71.42
76404;BME280;65232;48.358;2.122;2023-06-14T01:15:13;100400.56;;;15.00;71.29
76404;BME280;65232;48.358;2.122;2023-06-14T01:15:41;100405.97;;;14.92;71.57
76404;BME280;65232;48.358;2.122;2023-06-14T01:16:08;100402.44;;;14.91;71.82
76404;BME280;65232;48.358;2.122;2023-06-14T01:16:35;100399.25;;;14.96;71.73
76404;BME280;65232;48.358;2.122;2023-06-14T01:17:01;100404.47;;;14.97;71.54
76404;BME280;65232;48.358;2.122;2023-06-14T01:17:28;100406.13;;;14.90;71.82
76404;BME280;65232;48.358;2.122;2023-06-14T01:17:57;100401.56;;;14.91;71.86
76404;BME280;65232;48.358;2.122;2023-06-14T01:18:29;100399.22;;;14.88;71.82
76404;BME280;65232;48.358;2.122;2023-06-14T01:18:54;100402.44;;;14.91;72.04
76404;BME280;65232;48.358;2.122;2023-06-14T01:19:22;100402.75;;;14.88;72.07
76404;BME280;65232;48.358;2.122;2023-06-14T01:19:51;100403.63;;;14.97;71.80
76404;BME280;65232;48.358;2.122;2023-06-14T01:20:28;100401.56;;;14.91;72.43
76404;BME280;65232;48.358;2.122;2023-06-14T01:20:55;100398.72;;;14.92;72.74
76404;BME280;65232;48.358;2.122;2023-06-14T01:21:24;100398.56;;;15.02;72.45
76404;BME280;65232;48.358;2.122;2023-06-14T01:21:50;100403.78;;;14.95;72.54
76404;BME280;65232;48.358;2.122;2023-06-14T01:22:16;100404.47;;;14.97;72.33
76404;BME280;65232;48.358;2.122;2023-06-14T01:22:50;100399.25;;;14.96;72.07
76404;BME280;65232;48.358;2.122;2023-06-14T01:23:20;100399.25;;;14.96;71.85
76404;BME280;65232;48.358;2.122;2023-06-14T01:23:46;100400.41;;;14.93;72.15
76404;BME280;65232;48.358;2.122;2023-06-14T01:24:13;100398.72;;;14.92;72.16
76404;BME280;65232;48.358;2.122;2023-06-14T01:24:38;100400.41;;;14.93;71.83
76404;BME280;65232;48.358;2.122;2023-06-14T01:25:05;100398.53;;;14.77;71.91
76404;BME280;65232;48.358;2.122;2023-06-14T01:25:30;100398.19;;;14.80;72.19
76404;BME280;65232;48.358;2.122;2023-06-14T01:25:56;100404.91;;;14.85;72.13
76404;BME280;65232;48.358;2.122;2023-06-14T01:26:22;100399.38;;;14.86;72.22
76404;BME280;65232;48.358;2.122;2023-06-14T01:26:48;100402.56;;;14.81;72.73
76404;BME280;65232;48.358;2.122;2023-06-14T01:27:16;100397.66;;;14.77;72.87
76404;BME280;65232;48.358;2.122;2023-06-14T01:27:44;100400.22;;;14.78;72.84
76404;BME280;65232;48.358;2.122;2023-06-14T01:28:10;100400.00;;;14.72;72.67
76404;BME280;65232;48.358;2.122;2023-06-14T01:28:38;100407.53;;;14.60;73.18
76404;BME280;65232;48.358;2.122;2023-06-14T01:29:04;100409.75;;;14.65;73.01
76404;BME280;65232;48.358;2.122;2023-06-14T01:29:30;100406.91;;;14.66;72.93
76404;BME280;65232;48.358;2.122;2023-06-14T01:29:58;100408.72;;;14.58;72.86
76404;BME280;65232;48.358;2.122;2023-06-14T01:30:25;100400.94;;;14.55;72.89
76404;BME280;65232;48.358;2.122;2023-06-14T01:30:53;100404.84;;;14.60;72.70
76404;BME280;65232;48.358;2.122;2023-06-14T01:31:20;100409.88;;;14.55;72.81
76404;BME280;65232;48.358;2.122;2023-06-14T01:31:50;100405.16;;;14.57;72.95
76404;BME280;65232;48.358;2.122;2023-06-14T01:32:15;100406.53;;;14.61;72.36
76404;BME280;65232;48.358;2.122;2023-06-14T01:32:43;100413.28;;;14.65;72.39
76404;BME280;65232;48.358;2.122;2023-06-14T01:33:13;100404.91;;;14.68;71.86
76404;BME280;65232;48.358;2.122;2023-06-14T01:33:38;100412.63;;;14.63;72.12
76404;BME280;65232;48.358;2.122;2023-06-14T01:34:04;100401.34;;;14.68;72.22
76404;BME280;65232;48.358;2.122;2023-06-14T01:34:30;100405.38;;;14.64;72.12
76404;BME280;65232;48.358;2.122;2023-06-14T01:34:55;100405.38;;;14.64;72.32
76404;BME280;65232;48.358;2.122;2023-06-14T01:35:21;100398.97;;;14.65;72.16
76404;BME280;65232;48.358;2.122;2023-06-14T01:35:49;100403.00;;;14.61;72.43
76404;BME280;65232;48.358;2.122;2023-06-14T01:36:16;100406.84;;;14.58;72.54
76404;BME280;65232;48.358;2.122;2023-06-14T01:36:44;100408.06;;;14.64;72.37
76404;BME280;65232;48.358;2.122;2023-06-14T01:37:12;100404.38;;;14.65;72.35
76404;BME280;65232;48.358;2.122;2023-06-14T01:37:39;100403.31;;;14.58;72.18
76404;BME280;65232;48.358;2.122;2023-06-14T01:38:06;100413.78;;;14.61;72.58
76404;BME280;65232;48.358;2.122;2023-06-14T01:38:32;100398.47;;;14.61;72.65
76404;BME280;65232;48.358;2.122;2023-06-14T01:38:58;100404.38;;;14.65;72.56
76404;BME280;65232;48.358;2.122;2023-06-14T01:39:26;100401.53;;;14.66;72.03
76404;BME280;65232;48.358;2.122;2023-06-14T01:39:52;100404.53;;;14.71;71.95
76404;BME280;65232;48.358;2.122;2023-06-14T01:40:18;100405.59;;;14.78;71.82
76404;BME280;65232;48.358;2.122;2023-06-14T01:40:45;100405.38;;;14.64;72.33
76404;BME280;65232;48.358;2.122;2023-06-14T01:41:12;100409.44;;;14.68;71.95
76404;BME280;65232;48.358;2.122;2023-06-14T01:41:39;100410.06;;;14.62;72.06
76404;BME280;65232;48.358;2.122;2023-06-14T01:42:05;100407.53;;;14.60;72.35
76404;BME280;65232;48.358;2.122;2023-06-14T01:42:33;100406.69;;;14.52;72.62
76404;BME280;65232;48.358;2.122;2023-06-14T01:43:03;100409.72;;;14.57;73.08
76404;BME280;65232;48.358;2.122;2023-06-14T01:43:33;100409.22;;;14.53;73.62
76404;BME280;65232;48.358;2.122;2023-06-14T01:44:00;100408.22;;;14.54;73.68
76404;BME280;65232;48.358;2.122;2023-06-14T01:44:27;100403.31;;;14.58;73.52
76404;BME280;65232;48.358;2.122;2023-06-14T01:44:54;100405.84;;;14.51;73.89
76404;BME280;65232;48.358;2.122;2023-06-14T01:45:21;100409.22;;;14.61;73.50
76404;BME280;65232;48.358;2.122;2023-06-14T01:45:49;100408.91;;;14.64;73.24
76404;BME280;65232;48.358;2.122;2023-06-14T01:46:17;100411.78;;;14.63;73.04
76404;BME280;65232;48.358;2.122;2023-06-14T01:46:43;100407.38;;;14.62;73.60
76404;BME280;65232;48.358;2.122;2023-06-14T01:47:10;100409.22;;;14.61;73.29
76404;BME280;65232;48.358;2.122;2023-06-14T01:47:37;100413.22;;;14.49;74.06
76404;BME280;65232;48.358;2.122;2023-06-14T01:48:03;100405.78;;;14.43;74.16
76404;BME280;65232;48.358;2.122;2023-06-14T01:48:30;100405.41;;;14.38;74.04
76404;BME280;65232;48.358;2.122;2023-06-14T01:48:57;100404.72;;;14.36;74.26
76404;BME280;65232;48.358;2.122;2023-06-14T01:49:22;100412.69;;;14.45;73.66
76404;BME280;65232;48.358;2.122;2023-06-14T01:49:48;100407.03;;;14.31;74.30
76404;BME280;65232;48.358;2.122;2023-06-14T01:50:13;100412.31;;;14.40;74.05
76404;BME280;65232;48.358;2.122;2023-06-14T01:50:39;100415.03;;;14.40;73.62
76404;BME280;65232;48.358;2.122;2023-06-14T01:51:04;100404.25;;;14.40;73.68
76404;BME280;65232;48.358;2.122;2023-06-14T01:51:30;100412.16;;;14.42;73.52
76404;BME280;65232;48.358;2.122;2023-06-14T01:51:55;100408.94;;;14.38;73.72
76404;BME280;65232;48.358;2.122;2023-06-14T01:52:21;100413.13;;;14.33;73.98
76404;BME280;65232;48.358;2.122;2023-06-14T01:52:47;100410.91;;;14.28;73.78
76404;BME280;65232;48.358;2.122;2023-06-14T01:53:13;100409.06;;;14.29;74.15
76404;BME280;65232;48.358;2.122;2023-06-14T01:53:38;100413.75;;;14.27;74.33
76404;BME280;65232;48.358;2.122;2023-06-14T01:54:04;100406.03;;;14.24;74.71
76404;BME280;65232;48.358;2.122;2023-06-14T01:54:30;100414.75;;;14.26;74.75
76404;BME280;65232;48.358;2.122;2023-06-14T01:54:56;100409.72;;;14.23;74.92
76404;BME280;65232;48.358;2.122;2023-06-14T01:55:23;100414.94;;;14.24;74.86
76404;BME280;65232;48.358;2.122;2023-06-14T01:55:49;100413.81;;;14.35;74.50
76404;BME280;65232;48.358;2.122;2023-06-14T01:56:15;100411.00;;;14.44;73.68
76404;BME280;65232;48.358;2.122;2023-06-14T01:56:41;100411.84;;;14.45;73.79
76404;BME280;65232;48.358;2.122;2023-06-14T01:57:07;100410.28;;;14.34;73.88
76404;BME280;65232;48.358;2.122;2023-06-14T01:57:33;100415.19;;;14.39;73.69
76404;BME280;65232;48.358;2.122;2023-06-14T01:57:58;100416.88;;;14.40;73.50
76404;BME280;65232;48.358;2.122;2023-06-14T01:58:25;100414.03;;;14.41;73.44
76404;BME280;65232;48.358;2.122;2023-06-14T01:58:51;100412.69;;;14.45;73.23
76404;BME280;65232;48.358;2.122;2023-06-14T01:59:17;100407.88;;;14.31;73.56
76404;BME280;65232;48.358;2.122;2023-06-14T01:59:42;100412.81;;;14.36;73.62
76404;BME280;65232;48.358;2.122;2023-06-14T02:00:08;100412.13;;;14.34;73.60
76404;BME280;65232;48.358;2.122;2023-06-14T02:00:38;100407.88;;;14.31;73.88
76404;BME280;65232;48.358;2.122;2023-06-14T02:01:03;100404.56;;;14.37;73.80
76404;BME280;65232;48.358;2.122;2023-06-14T02:01:29;100407.41;;;14.36;74.12
76404;BME280;65232;48.358;2.122;2023-06-14T02:01:54;100404.41;;;14.39;73.82
76404;BME280;65232;48.358;2.122;2023-06-14T02:02:20;100400.88;;;14.38;73.86
76404;BME280;65232;48.358;2.122;2023-06-14T02:02:45;100398.88;;;14.40;73.42
76404;BME280;65232;48.358;2.122;2023-06-14T02:03:11;100406.72;;;14.34;73.98
76404;BME280;65232;48.358;2.122;2023-06-14T02:03:38;100408.03;;;14.30;74.11
76404;BME280;65232;48.358;2.122;2023-06-14T02:04:04;100413.25;;;14.23;74.14
76404;BME280;65232;48.358;2.122;2023-06-14T02:04:29;100408.38;;;14.27;74.15
76404;BME280;65232;48.358;2.122;2023-06-14T02:04:55;100410.06;;;14.28;73.95
76404;BME280;65232;48.358;2.122;2023-06-14T02:05:22;100410.72;;;14.22;74.02
76404;BME280;65232;48.358;2.122;2023-06-14T02:05:48;100406.88;;;14.24;73.98
76404;BME280;65232;48.358;2.122;2023-06-14T02:06:13;100405.34;;;14.22;73.82
76404;BME280;65232;48.358;2.122;2023-06-14T02:06:40;100409.91;;;14.29;73.74
76404;BME280;65232;48.358;2.122;2023-06-14T02:07:06;100405.34;;;14.30;73.77
76404;BME280;65232;48.358;2.122;2023-06-14T02:07:32;100411.97;;;14.35;73.77
76404;BME280;65232;48.358;2.122;2023-06-14T02:07:58;100407.72;;;14.33;73.66
76404;BME280;65232;48.358;2.122;2023-06-14T02:08:24;100408.09;;;14.38;73.69
76404;BME280;65232;48.358;2.122;2023-06-14T02:08:49;100405.84;;;14.25;73.64
76404;BME280;65232;48.358;2.122;2023-06-14T02:09:15;100408.13;;;14.12;74.02
76404;BME280;65232;48.358;2.122;2023-06-14T02:09:41;100407.66;;;14.17;74.06
76404;BME280;65232;48.358;2.122;2023-06-14T02:10:07;100403.25;;;14.16;74.23
76404;BME280;65232;48.358;2.122;2023-06-14T02:10:32;100408.88;;;14.22;73.92
76404;BME280;65232;48.358;2.122;2023-06-14T02:10:57;100410.19;;;14.18;74.12
76404;BME280;65232;48.358;2.122;2023-06-14T02:11:23;100410.56;;;14.23;73.52
76404;BME280;65232;48.358;2.122;2023-06-14T02:11:49;100416.97;;;14.30;73.15
76404;BME280;65232;48.358;2.122;2023-06-14T02:12:15;100412.03;;;14.18;73.16
76404;BME280;65232;48.358;2.122;2023-06-14T02:12:40;100413.03;;;14.17;73.18
76404;BME280;65232;48.358;2.122;2023-06-14T02:13:06;100409.50;;;14.16;73.57
76404;BME280;65232;48.358;2.122;2023-06-14T02:13:31;100416.94;;;14.22;73.36
76404;BME280;65232;48.358;2.122;2023-06-14T02:13:57;100416.03;;;14.13;73.66
76404;BME280;65232;48.358;2.122;2023-06-14T02:14:25;100406.97;;;14.15;73.21
76404;BME280;65232;48.358;2.122;2023-06-14T02:14:51;100407.13;;;14.13;73.21
76404;BME280;65232;48.358;2.122;2023-06-14T02:15:17;100409.31;;;14.09;73.44
76404;BME280;65232;48.358;2.122;2023-06-14T02:15:43;100409.81;;;14.13;73.44
76404;BME280;65232;48.358;2.122;2023-06-14T02:16:10;100420.09;;;14.18;73.32
76404;BME280;65232;48.358;2.122;2023-06-14T02:16:37;100416.03;;;14.13;73.14
76404;BME280;65232;48.358;2.122;2023-06-14T02:17:04;100408.47;;;14.09;73.30
76404;BME280;65232;48.358;2.122;2023-06-14T02:17:29;100413.16;;;14.07;73.29
76404;BME280;65232;48.358;2.122;2023-06-14T02:17:55;100407.44;;;14.10;73.09
76404;BME280;65232;48.358;2.122;2023-06-14T02:18:21;100413.84;;;14.09;73.30
76404;BME280;65232;48.358;2.122;2023-06-14T02:18:46;100407.69;;;13.99;73.86
76404;BME280;65232;48.358;2.122;2023-06-14T02:19:12;100404.31;;;13.97;73.89
76404;BME280;65232;48.358;2.122;2023-06-14T02:19:37;100405.00;;;13.99;73.81
76404;BME280;65232;48.358;2.122;2023-06-14T02:20:03;100407.09;;;14.05;73.64
76404;BME280;65232;48.358;2.122;2023-06-14T02:20:31;100405.28;;;14.13;73.43
76404;BME280;65232;48.358;2.122;2023-06-14T02:20:56;100410.97;;;14.10;73.51
76404;BME280;65232;48.358;2.122;2023-06-14T02:21:22;100408.47;;;14.09;73.32
76404;BME280;65232;48.358;2.122;2023-06-14T02:21:47;100412.34;;;14.15;73.02